createdAt,value
2023-05-14T00:00:44.549Z,450.9231
2023-05-14T00:01:46.942Z,451.4615
2023-05-14T00:02:49.287Z,450.8462
2023-05-14T00:03:51.695Z,453.0000
2023-05-14T00:04:53.897Z,452.9167
2023-05-14T00:05:56.238Z,450.3077
2023-05-14T00:06:58.579Z,448.6154
2023-05-14T00:08:00.921Z,444.3846
2023-05-14T00:09:03.258Z,443.2500
2023-05-14T00:10:05.605Z,441.0000
2023-05-14T00:11:08.047Z,438.6923
2023-05-14T00:12:10.304Z,438.5000
2023-05-14T00:13:12.591Z,442.4615
2023-05-14T00:14:14.946Z,441.2308
2023-05-14T00:15:17.270Z,440.9231
2023-05-14T00:16:19.662Z,441.0769
2023-05-14T00:17:21.975Z,441.2308
2023-05-14T00:18:24.312Z,441.8462
2023-05-14T00:19:26.717Z,444.3846
2023-05-14T00:20:28.956Z,446.9231
2023-05-14T00:21:31.355Z,447.6923
2023-05-14T00:22:33.647Z,447.9167
2023-05-14T00:23:36.078Z,447.8462
2023-05-14T00:24:38.975Z,449.7500
2023-05-14T00:25:40.824Z,449.7500
2023-05-14T00:26:43.973Z,450.4167
2023-05-14T00:27:45.422Z,450.5000
2023-05-14T00:28:47.729Z,449.3333
2023-05-14T00:29:50.777Z,448.7500
2023-05-14T00:30:52.644Z,451.0833
2023-05-14T00:31:54.809Z,453.6667
2023-05-14T00:32:58.112Z,452.9167
2023-05-14T00:33:59.467Z,453.2500
2023-05-14T00:35:01.919Z,450.2500
2023-05-14T00:36:04.423Z,450.9167
2023-05-14T00:37:06.926Z,451.5000
2023-05-14T00:38:09.798Z,450.0000
2023-05-14T00:39:11.061Z,453.4167
2023-05-14T00:40:13.650Z,456.6923
2023-05-14T00:41:16.187Z,457.9167
2023-05-14T00:42:18.187Z,457.6667
2023-05-14T00:43:20.733Z,456.5833
2023-05-14T00:44:22.873Z,455.5833
2023-05-14T00:45:25.354Z,456.1667
2023-05-14T00:46:27.608Z,454.0833
2023-05-14T00:47:30.674Z,453.4167
2023-05-14T00:48:32.433Z,449.9167
2023-05-14T00:49:34.776Z,453.0833
2023-05-14T00:50:36.998Z,455.3333
2023-05-14T00:51:39.185Z,455.0833
2023-05-14T00:52:41.527Z,456.0000
2023-05-14T00:53:43.995Z,453.8333
2023-05-14T00:54:46.261Z,453.0833
2023-05-14T00:55:49.062Z,453.4167
2023-05-14T00:56:51.096Z,454.3333
2023-05-14T00:57:53.311Z,455.5833
2023-05-14T00:58:55.492Z,456.5000
2023-05-14T00:59:58.031Z,458.0769
2023-05-14T01:01:00.779Z,458.3333
2023-05-14T01:02:02.710Z,458.5833
2023-05-14T01:03:05.192Z,456.9167
2023-05-14T01:04:07.936Z,455.9167
2023-05-14T01:05:09.707Z,456.7500
2023-05-14T01:06:11.975Z,455.3333
2023-05-14T01:07:14.346Z,455.5454
2023-05-14T01:08:16.545Z,456.0000
2023-05-14T01:09:18.957Z,456.3333
2023-05-14T01:10:21.624Z,457.1818
2023-05-14T01:11:23.745Z,459.0833
2023-05-14T01:12:26.621Z,457.4167
2023-05-14T01:13:28.285Z,455.1667
2023-05-14T01:14:30.659Z,457.0833
2023-05-14T01:15:33.070Z,457.9091
2023-05-14T01:16:35.331Z,457.2500
2023-05-14T01:17:37.671Z,457.3846
2023-05-14T01:18:39.929Z,456.5833
2023-05-14T01:19:42.343Z,454.6923
2023-05-14T01:20:44.761Z,453.5385
2023-05-14T01:21:47.043Z,452.2500
2023-05-14T01:22:49.408Z,456.5833
2023-05-14T01:23:51.598Z,460.9167
2023-05-14T01:24:54.015Z,460.0000
2023-05-14T01:25:56.415Z,457.6667
2023-05-14T01:26:58.708Z,455.5833
2023-05-14T01:28:00.930Z,455.8333
2023-05-14T01:29:03.625Z,458.3846
2023-05-14T01:30:05.681Z,457.1667
2023-05-14T01:31:08.102Z,457.0000
2023-05-14T01:32:10.693Z,453.0833
2023-05-14T01:33:12.840Z,454.2500
2023-05-14T01:34:15.201Z,454.0000
2023-05-14T01:35:17.360Z,453.9167
2023-05-14T01:36:20.106Z,453.3333
2023-05-14T01:37:22.190Z,452.5000
2023-05-14T01:38:24.456Z,453.8182
2023-05-14T01:39:26.682Z,454.0833
2023-05-14T01:40:28.950Z,458.8333
2023-05-14T01:41:31.477Z,454.8333
2023-05-14T01:42:33.694Z,452.3636
2023-05-14T01:43:36.228Z,451.8462
2023-05-14T01:44:38.315Z,454.2500
2023-05-14T01:45:40.835Z,454.1538
2023-05-14T01:46:43.273Z,454.0000
2023-05-14T01:47:45.613Z,456.5833
2023-05-14T01:48:47.749Z,454.5000
2023-05-14T01:49:50.235Z,454.2500
2023-05-14T01:50:52.439Z,458.1818
2023-05-14T01:51:54.963Z,459.2500
2023-05-14T01:52:57.358Z,460.1667
2023-05-14T01:53:59.664Z,460.4167
2023-05-14T01:55:02.079Z,458.6667
2023-05-14T01:56:04.101Z,456.3333
2023-05-14T01:57:06.391Z,457.5385
2023-05-14T01:58:08.801Z,457.2500
2023-05-14T01:59:11.205Z,459.7500
2023-05-14T02:00:13.532Z,459.7500
2023-05-14T02:01:16.315Z,460.0833
2023-05-14T02:02:18.980Z,459.5000
2023-05-14T02:03:20.654Z,459.0000
2023-05-14T02:04:22.846Z,459.1667
2023-05-14T02:05:25.327Z,460.7500
2023-05-14T02:06:27.983Z,462.5000
2023-05-14T02:07:29.940Z,465.1667
2023-05-14T02:08:32.655Z,461.7500
2023-05-14T02:09:34.581Z,459.5000
2023-05-14T02:10:36.829Z,456.1667
2023-05-14T02:11:39.247Z,460.4615
2023-05-14T02:12:41.712Z,460.1667
2023-05-14T02:13:43.926Z,460.0833
2023-05-14T02:14:46.199Z,460.9091
2023-05-14T02:15:48.708Z,458.9091
2023-05-14T02:16:50.945Z,457.5000
2023-05-14T02:17:53.264Z,458.1667
2023-05-14T02:18:55.937Z,457.1538
2023-05-14T02:19:58.053Z,456.3333
2023-05-14T02:21:00.287Z,457.3333
2023-05-14T02:22:02.690Z,456.0833
2023-05-14T02:23:05.714Z,455.8333
2023-05-14T02:24:07.240Z,455.5833
2023-05-14T02:25:09.947Z,455.0833
2023-05-14T02:26:12.870Z,455.5833
2023-05-14T02:27:14.857Z,454.1667
2023-05-14T02:28:17.013Z,454.2500
2023-05-14T02:29:19.136Z,456.5000
2023-05-14T02:30:22.144Z,459.2500
2023-05-14T02:31:24.074Z,459.1667
2023-05-14T02:32:26.346Z,458.3333
2023-05-14T02:33:28.678Z,456.8333
2023-05-14T02:34:30.717Z,456.4167
2023-05-14T02:35:33.249Z,458.3333
2023-05-14T02:36:35.775Z,457.5000
2023-05-14T02:37:38.136Z,454.7500
2023-05-14T02:38:40.145Z,451.7500
2023-05-14T02:39:42.328Z,451.9167
2023-05-14T02:40:44.671Z,454.0000
2023-05-14T02:41:47.007Z,454.4546
2023-05-14T02:42:49.358Z,454.3846
2023-05-14T02:43:51.709Z,452.8462
2023-05-14T02:44:54.290Z,450.6667
2023-05-14T02:45:56.355Z,448.9167
2023-05-14T02:46:58.792Z,451.3333
2023-05-14T02:48:01.088Z,455.3333
2023-05-14T02:49:03.392Z,453.3333
2023-05-14T02:50:06.027Z,452.9231
2023-05-14T02:51:08.081Z,456.0000
2023-05-14T02:52:10.437Z,456.9231
2023-05-14T02:53:12.708Z,454.1538
2023-05-14T02:54:15.050Z,453.0769
2023-05-14T02:55:17.431Z,452.6154
2023-05-14T02:56:19.719Z,453.0769
2023-05-14T02:57:22.097Z,454.1538
2023-05-14T02:58:27.435Z,451.0833
2023-05-14T02:59:26.980Z,451.7500
2023-05-14T03:00:29.072Z,452.2500
2023-05-14T03:01:32.041Z,452.5000
2023-05-14T03:02:33.970Z,452.9167
2023-05-14T03:03:36.108Z,453.2500
2023-05-14T03:04:38.718Z,451.5833
2023-05-14T03:05:41.042Z,449.7500
2023-05-14T03:06:43.122Z,450.4167
2023-05-14T03:07:45.466Z,450.6154
2023-05-14T03:08:47.793Z,449.8333
2023-05-14T03:09:50.095Z,450.0000
2023-05-14T03:10:52.468Z,451.1538
2023-05-14T03:11:54.780Z,451.1667
2023-05-14T03:12:57.166Z,450.6923
2023-05-14T03:13:59.503Z,452.3077
2023-05-14T03:15:02.104Z,455.5000
2023-05-14T03:16:04.150Z,454.9091
2023-05-14T03:17:06.574Z,454.0000
2023-05-14T03:18:09.134Z,453.6923
2023-05-14T03:19:11.363Z,449.9167
2023-05-14T03:20:13.584Z,450.8333
2023-05-14T03:21:15.997Z,453.3333
2023-05-14T03:22:18.371Z,454.8333
2023-05-14T03:23:20.515Z,454.0000
2023-05-14T03:24:22.974Z,453.8333
2023-05-14T03:25:25.783Z,452.4167
2023-05-14T03:26:27.935Z,453.0000
2023-05-14T03:27:30.636Z,452.5000
2023-05-14T03:28:32.201Z,452.1818
2023-05-14T03:29:34.513Z,452.4615
2023-05-14T03:30:36.996Z,452.5385
2023-05-14T03:31:39.214Z,452.0000
2023-05-14T03:32:41.618Z,453.3636
2023-05-14T03:33:44.044Z,455.3333
2023-05-14T03:34:46.312Z,453.5000
2023-05-14T03:35:48.555Z,455.2500
2023-05-14T03:36:52.007Z,453.4615
2023-05-14T03:37:53.228Z,451.8333
2023-05-14T03:38:55.570Z,450.7692
2023-05-14T03:39:58.037Z,450.9231
2023-05-14T03:41:00.453Z,452.7500
2023-05-14T03:42:02.881Z,452.8333
2023-05-14T03:43:04.904Z,452.0833
2023-05-14T03:44:07.275Z,451.6154
2023-05-14T03:45:09.615Z,454.4167
2023-05-14T03:46:12.258Z,454.8333
2023-05-14T03:47:14.363Z,456.4167
2023-05-14T03:48:16.796Z,461.3333
2023-05-14T03:49:19.016Z,459.9167
2023-05-14T03:50:21.359Z,458.9167
2023-05-14T03:51:23.603Z,457.4167
2023-05-14T03:52:25.942Z,458.4615
2023-05-14T03:53:28.383Z,457.9167
2023-05-14T03:54:30.668Z,458.3333
2023-05-14T03:55:32.925Z,457.0833
2023-05-14T03:56:35.294Z,457.5385
2023-05-14T03:57:37.761Z,458.0833
2023-05-14T03:58:40.069Z,458.3333
2023-05-14T03:59:42.647Z,458.2500
2023-05-14T04:00:44.937Z,458.1667
2023-05-14T04:01:47.290Z,458.2500
2023-05-14T04:02:49.330Z,458.4167
2023-05-14T04:03:51.845Z,458.3333
2023-05-14T04:04:54.438Z,458.4167
2023-05-14T04:05:57.083Z,456.8333
2023-05-14T04:06:58.696Z,458.4167
2023-05-14T04:08:01.013Z,456.3077
2023-05-14T04:09:03.428Z,456.0769
2023-05-14T04:10:06.070Z,456.5385
2023-05-14T04:11:08.061Z,457.8333
2023-05-14T04:12:10.552Z,458.0769
2023-05-14T04:13:13.138Z,457.7500
2023-05-14T04:14:15.212Z,458.5833
2023-05-14T04:15:17.723Z,456.2500
2023-05-14T04:16:19.730Z,456.6667
2023-05-14T04:17:22.090Z,457.7692
2023-05-14T04:18:24.548Z,457.4167
2023-05-14T04:19:26.697Z,460.2500
2023-05-14T04:20:29.190Z,459.5385
2023-05-14T04:21:31.472Z,458.0833
2023-05-14T04:22:33.945Z,458.3333
2023-05-14T04:23:36.134Z,459.4167
2023-05-14T04:24:38.415Z,458.9167
2023-05-14T04:25:40.724Z,456.6923
2023-05-14T04:26:43.180Z,456.6923
2023-05-14T04:27:45.407Z,460.4167
2023-05-14T04:28:47.950Z,460.0769
2023-05-14T04:29:50.329Z,459.2500
2023-05-14T04:30:52.443Z,459.0000
2023-05-14T04:31:54.781Z,456.3077
2023-05-14T04:32:57.131Z,455.1667
2023-05-14T04:33:59.576Z,456.5000
2023-05-14T04:35:01.898Z,458.0833
2023-05-14T04:36:04.088Z,457.9167
2023-05-14T04:37:06.401Z,460.3077
2023-05-14T04:38:08.770Z,462.1538
2023-05-14T04:39:11.180Z,462.7692
2023-05-14T04:40:13.407Z,462.6667
2023-05-14T04:41:15.744Z,462.3077
2023-05-14T04:42:18.080Z,461.8462
2023-05-14T04:43:20.466Z,460.0909
2023-05-14T04:44:22.743Z,460.1538
2023-05-14T04:45:25.086Z,461.5385
2023-05-14T04:46:27.553Z,460.1538
2023-05-14T04:47:29.828Z,460.5833
2023-05-14T04:48:32.084Z,459.2500
2023-05-14T04:49:34.563Z,458.6923
2023-05-14T04:50:36.832Z,457.7500
2023-05-14T04:51:39.097Z,458.3333
2023-05-14T04:52:41.482Z,458.5385
2023-05-14T04:53:45.025Z,458.0000
2023-05-14T04:54:47.410Z,457.2500
2023-05-14T04:55:48.941Z,458.5833
2023-05-14T04:56:50.919Z,457.3333
2023-05-14T04:57:53.169Z,457.0000
2023-05-14T04:58:55.982Z,457.6154
2023-05-14T04:59:57.795Z,456.5833
2023-05-14T05:01:00.504Z,453.5000
2023-05-14T05:02:02.486Z,453.7500
2023-05-14T05:03:05.257Z,454.6364
2023-05-14T05:04:07.205Z,452.6667
2023-05-14T05:05:09.862Z,452.1667
2023-05-14T05:06:12.329Z,453.8333
2023-05-14T05:07:14.143Z,454.1667
2023-05-14T05:08:17.115Z,456.0833
2023-05-14T05:09:19.400Z,455.7500
2023-05-14T05:10:21.272Z,453.1667
2023-05-14T05:11:23.603Z,453.0000
2023-05-14T05:12:25.911Z,453.4167
2023-05-14T05:13:28.270Z,454.0833
2023-05-14T05:14:30.545Z,451.8333
2023-05-14T05:15:33.014Z,449.1667
2023-05-14T05:16:35.559Z,447.1667
2023-05-14T05:17:37.797Z,447.9167
2023-05-14T05:18:40.186Z,449.1667
2023-05-14T05:19:44.118Z,448.0833
2023-05-14T05:20:44.589Z,447.0000
2023-05-14T05:21:47.355Z,445.7692
2023-05-14T05:22:49.395Z,446.0833
2023-05-14T05:23:51.652Z,446.4167
2023-05-14T05:24:54.322Z,443.6667
2023-05-14T05:25:56.349Z,444.7500
2023-05-14T05:26:58.593Z,446.0000
2023-05-14T05:28:00.968Z,444.3077
2023-05-14T05:29:03.298Z,445.1667
2023-05-14T05:30:05.641Z,447.7500
2023-05-14T05:31:08.330Z,448.2500
2023-05-14T05:32:10.435Z,448.5833
2023-05-14T05:33:12.668Z,448.6667
2023-05-14T05:34:14.918Z,449.9167
2023-05-14T05:35:17.343Z,448.3636
2023-05-14T05:36:19.715Z,448.2500
2023-05-14T05:37:22.097Z,448.9167
2023-05-14T05:38:24.298Z,446.7500
2023-05-14T05:39:26.643Z,444.7692
2023-05-14T05:40:28.974Z,443.5385
2023-05-14T05:41:31.321Z,442.7500
2023-05-14T05:42:33.751Z,443.7273
2023-05-14T05:43:36.049Z,443.5833
2023-05-14T05:44:38.462Z,446.6667
2023-05-14T05:45:40.740Z,445.2500
2023-05-14T05:46:43.191Z,446.3333
2023-05-14T05:47:45.488Z,445.0000
2023-05-14T05:48:47.809Z,443.4167
2023-05-14T05:49:50.006Z,445.6667
2023-05-14T05:50:52.377Z,446.8462
2023-05-14T05:51:54.793Z,447.7500
2023-05-14T05:52:57.023Z,447.1667
2023-05-14T05:53:59.339Z,448.6364
2023-05-14T05:55:01.697Z,450.6154
2023-05-14T05:56:04.091Z,449.0000
2023-05-14T05:57:06.456Z,449.3636
2023-05-14T05:58:08.713Z,447.0833
2023-05-14T05:59:11.157Z,448.0000
2023-05-14T06:00:13.484Z,447.2500
2023-05-14T06:01:15.888Z,445.6667
2023-05-14T06:02:18.121Z,447.4167
2023-05-14T06:03:20.410Z,446.4167
2023-05-14T06:04:22.750Z,444.0000
2023-05-14T06:05:25.091Z,443.8462
2023-05-14T06:06:27.372Z,445.6154
2023-05-14T06:07:29.801Z,446.7692
2023-05-14T06:08:32.428Z,446.2500
2023-05-14T06:09:34.401Z,446.0909
2023-05-14T06:10:36.850Z,445.2308
2023-05-14T06:11:39.082Z,447.0000
2023-05-14T06:12:41.444Z,444.8462
2023-05-14T06:13:43.818Z,444.8462
2023-05-14T06:14:46.084Z,446.7500
2023-05-14T06:15:48.407Z,445.3077
2023-05-14T06:16:50.924Z,444.7500
2023-05-14T06:17:53.418Z,443.6667
2023-05-14T06:18:55.505Z,445.0833
2023-05-14T06:19:57.984Z,445.2500
2023-05-14T06:21:00.142Z,445.9167
2023-05-14T06:22:02.791Z,445.3333
2023-05-14T06:23:04.810Z,446.5833
2023-05-14T06:24:07.216Z,448.1538
2023-05-14T06:25:09.610Z,447.8333
2023-05-14T06:26:12.129Z,449.4167
2023-05-14T06:27:14.170Z,449.1667
2023-05-14T06:28:16.442Z,449.1667
2023-05-14T06:29:19.306Z,449.2500
2023-05-14T06:30:21.392Z,450.7500
2023-05-14T06:31:23.449Z,451.6667
2023-05-14T06:32:25.851Z,450.6923
2023-05-14T06:33:28.129Z,448.2308
2023-05-14T06:34:30.551Z,447.5385
2023-05-14T06:35:32.811Z,446.8333
2023-05-14T06:36:35.096Z,447.0000
2023-05-14T06:37:38.247Z,445.1667
2023-05-14T06:38:39.896Z,445.5000
2023-05-14T06:39:42.113Z,447.9167
2023-05-14T06:40:44.512Z,447.9231
2023-05-14T06:41:47.131Z,447.5000
2023-05-14T06:42:49.648Z,445.2500
2023-05-14T06:43:51.580Z,442.9167
2023-05-14T06:44:53.841Z,443.4167
2023-05-14T06:45:56.134Z,443.4167
2023-05-14T06:46:58.572Z,443.2308
2023-05-14T06:48:01.506Z,444.6667
2023-05-14T06:49:03.126Z,446.0000
2023-05-14T06:50:05.435Z,449.6923
2023-05-14T06:51:07.787Z,450.4615
2023-05-14T06:52:10.128Z,450.0769
2023-05-14T06:53:12.431Z,450.9231
2023-05-14T06:54:14.787Z,450.6923
2023-05-14T06:55:17.096Z,449.4615
2023-05-14T06:56:19.447Z,446.3077
2023-05-14T06:57:21.780Z,448.3077
2023-05-14T06:58:24.116Z,449.2308
2023-05-14T06:59:26.552Z,451.4615
2023-05-14T07:00:28.861Z,449.1667
2023-05-14T07:01:31.189Z,449.4615
2023-05-14T07:02:33.496Z,448.3333
2023-05-14T07:03:35.832Z,448.0769
2023-05-14T07:04:39.274Z,448.5385
2023-05-14T07:05:40.609Z,446.5833
2023-05-14T07:06:42.820Z,445.0000
2023-05-14T07:07:45.179Z,445.0769
2023-05-14T07:08:47.482Z,444.6154
2023-05-14T07:09:49.971Z,444.7692
2023-05-14T07:10:52.308Z,446.5000
2023-05-14T07:11:54.624Z,447.9167
2023-05-14T07:12:57.079Z,449.0000
2023-05-14T07:13:59.282Z,446.8333
2023-05-14T07:15:01.585Z,446.6667
2023-05-14T07:16:03.852Z,446.5000
2023-05-14T07:17:06.312Z,444.7692
2023-05-14T07:18:08.548Z,446.4167
2023-05-14T07:19:10.979Z,448.3077
2023-05-14T07:20:13.179Z,447.8333
2023-05-14T07:21:15.555Z,447.6154
2023-05-14T07:22:17.865Z,447.3077
2023-05-14T07:23:20.240Z,449.6154
2023-05-14T07:24:22.512Z,449.0769
2023-05-14T07:25:24.842Z,447.1538
2023-05-14T07:26:27.251Z,446.9231
2023-05-14T07:27:29.569Z,447.5833
2023-05-14T07:28:31.844Z,445.7500
2023-05-14T07:29:34.182Z,448.9231
2023-05-14T07:30:36.516Z,450.5385
2023-05-14T07:31:38.918Z,451.0000
2023-05-14T07:32:41.474Z,450.5000
2023-05-14T07:33:43.526Z,449.6667
2023-05-14T07:34:45.879Z,450.7273
2023-05-14T07:35:48.211Z,450.1538
2023-05-14T07:36:50.563Z,449.7273
2023-05-14T07:37:52.932Z,452.1667
2023-05-14T07:38:55.250Z,451.1667
2023-05-14T07:39:57.591Z,452.7692
2023-05-14T07:40:59.874Z,450.7692
2023-05-14T07:42:02.217Z,450.9231
2023-05-14T07:43:04.584Z,449.6154
2023-05-14T07:44:06.957Z,449.1538
2023-05-14T07:45:09.217Z,452.1667
2023-05-14T07:46:11.591Z,451.9167
2023-05-14T07:47:13.933Z,448.3846
2023-05-14T07:48:16.259Z,450.5833
2023-05-14T07:49:18.555Z,453.8462
2023-05-14T07:50:20.933Z,453.0769
2023-05-14T07:51:23.271Z,453.0000
2023-05-14T07:52:25.562Z,452.4167
2023-05-14T07:53:27.888Z,451.5385
2023-05-14T07:54:30.380Z,450.0769
2023-05-14T07:55:32.597Z,448.5833
2023-05-14T07:56:34.895Z,449.6154
2023-05-14T07:57:37.236Z,448.5000
2023-05-14T07:58:39.557Z,447.5833
2023-05-14T07:59:41.932Z,448.3846
2023-05-14T08:00:44.249Z,449.8462
2023-05-14T08:01:46.611Z,447.3077
2023-05-14T08:02:49.219Z,441.6923
2023-05-14T08:03:51.348Z,445.8333
2023-05-14T08:04:53.647Z,447.6667
2023-05-14T08:05:55.970Z,445.5833
2023-05-14T08:06:58.321Z,444.1667
2023-05-14T08:08:00.613Z,445.5833
2023-05-14T08:09:10.523Z,445.0000
2023-05-14T08:10:05.442Z,443.5454
2023-05-14T08:11:07.711Z,441.4167
2023-05-14T08:12:10.028Z,441.9231
2023-05-14T08:13:12.319Z,438.6923
2023-05-14T08:14:14.746Z,438.2308
2023-05-14T08:15:17.032Z,438.3333
2023-05-14T08:16:19.431Z,438.6923
2023-05-14T08:17:21.773Z,439.0769
2023-05-14T08:18:24.013Z,438.6154
2023-05-14T08:19:26.350Z,436.3846
2023-05-14T08:20:28.846Z,436.0000
2023-05-14T08:21:31.062Z,435.1667
2023-05-14T08:22:33.371Z,435.6154
2023-05-14T08:23:35.968Z,436.0000
2023-05-14T08:26:47.797Z,438.7500
2023-05-14T08:26:47.797Z,439.0000
2023-05-14T08:27:49.854Z,438.1667
2023-05-14T08:28:52.494Z,435.1538
2023-05-14T08:29:54.715Z,433.5000
2023-05-14T08:30:56.981Z,431.5833
2023-05-14T08:32:01.925Z,430.4167
2023-05-14T08:33:01.678Z,432.2727
2023-05-14T08:34:05.088Z,432.1667
2023-05-14T08:35:06.935Z,433.1667
2023-05-14T08:36:08.528Z,434.5833
2023-05-14T08:37:10.899Z,435.4615
2023-05-14T08:38:13.215Z,436.9231
2023-05-14T08:39:15.537Z,435.5385
2023-05-14T08:40:17.881Z,436.3077
2023-05-14T08:41:20.250Z,435.9231
2023-05-14T08:42:22.608Z,435.0000
2023-05-14T08:43:24.882Z,436.0833
2023-05-14T08:44:27.424Z,437.1538
2023-05-14T08:45:29.586Z,439.5833
2023-05-14T08:46:31.920Z,439.2500
2023-05-14T08:47:34.335Z,438.1667
2023-05-14T08:48:37.717Z,437.3333
2023-05-14T08:49:39.089Z,434.1667
2023-05-14T08:50:41.292Z,430.5833
2023-05-14T08:51:43.616Z,430.0000
2023-05-14T08:52:45.941Z,431.1667
2023-05-14T08:53:48.288Z,430.7692
2023-05-14T08:54:50.664Z,431.7692
2023-05-14T08:55:53.220Z,431.6923
2023-05-14T08:56:55.464Z,430.4167
2023-05-14T08:57:58.168Z,431.5833
2023-05-14T08:59:00.022Z,430.1667
2023-05-14T09:00:02.553Z,429.1538
2023-05-14T09:01:04.754Z,429.8333
2023-05-14T09:02:07.145Z,433.0833
2023-05-14T09:03:09.450Z,435.6667
2023-05-14T09:04:11.831Z,435.5000
2023-05-14T09:05:14.163Z,432.8333
2023-05-14T09:06:16.503Z,430.3636
2023-05-14T09:07:18.781Z,432.4167
2023-05-14T09:08:24.298Z,430.6364
2023-05-14T09:09:23.575Z,431.7500
2023-05-14T09:10:26.514Z,432.2500
2023-05-14T09:11:28.149Z,433.5000
2023-05-14T09:12:30.855Z,434.4167
2023-05-14T09:13:33.063Z,434.4167
2023-05-14T09:14:35.147Z,432.2500
2023-05-14T09:15:37.405Z,429.6667
2023-05-14T09:16:39.870Z,429.3077
2023-05-14T09:17:42.234Z,431.5833
2023-05-14T09:18:44.422Z,433.5000
2023-05-14T09:19:46.744Z,432.1538
2023-05-14T09:20:49.057Z,430.2308
2023-05-14T09:21:51.442Z,431.7692
2023-05-14T09:22:53.793Z,432.4546
2023-05-14T09:23:56.055Z,431.4167
2023-05-14T09:24:58.558Z,421.9231
2023-05-14T09:26:00.929Z,424.8333
2023-05-14T09:27:03.115Z,425.3333
2023-05-14T09:28:05.659Z,427.7692
2023-05-14T09:29:08.191Z,428.8333
2023-05-14T09:30:10.270Z,429.0833
2023-05-14T09:31:12.451Z,431.9167
2023-05-14T09:32:14.925Z,432.1538
2023-05-14T09:33:17.195Z,432.7500
2023-05-14T09:34:19.423Z,435.2500
2023-05-14T09:35:21.857Z,434.6154
2023-05-14T09:36:24.164Z,434.6667
2023-05-14T09:37:26.530Z,432.7273
2023-05-14T09:38:28.790Z,431.9167
2023-05-14T09:39:31.270Z,428.3077
2023-05-14T09:40:33.633Z,428.0000
2023-05-14T09:41:35.831Z,428.4167
2023-05-14T09:42:38.160Z,425.8462
2023-05-14T09:43:40.491Z,425.0000
2023-05-14T09:44:42.986Z,425.9231
2023-05-14T09:45:45.179Z,426.3333
2023-05-14T09:46:47.578Z,427.0000
2023-05-14T09:47:49.982Z,429.5833
2023-05-14T09:48:52.218Z,428.9167
2023-05-14T09:49:54.522Z,425.9231
2023-05-14T09:50:56.880Z,425.6667
2023-05-14T09:51:59.223Z,426.5385
2023-05-14T09:53:01.541Z,428.6923
2023-05-14T09:54:03.955Z,427.4615
2023-05-14T09:55:06.202Z,429.0833
2023-05-14T09:56:08.541Z,431.3846
2023-05-14T09:57:10.949Z,430.6923
2023-05-14T09:58:13.241Z,429.7500
2023-05-14T09:59:15.547Z,428.6923
2023-05-14T10:00:17.872Z,428.8462
2023-05-14T10:01:20.308Z,428.8462
2023-05-14T10:02:22.577Z,427.6154
2023-05-14T10:03:24.981Z,428.9231
2023-05-14T10:04:27.411Z,428.2500
2023-05-14T10:05:29.585Z,427.3333
2023-05-14T10:06:32.109Z,424.2308
2023-05-14T10:07:34.260Z,423.3333
2023-05-14T10:08:36.660Z,423.5385
2023-05-14T10:09:39.447Z,426.6154
2023-05-14T10:10:46.613Z,428.4167
2023-05-14T10:11:43.782Z,426.9091
2023-05-14T10:12:46.111Z,427.7273
2023-05-14T10:13:48.329Z,429.6667
2023-05-14T10:14:50.953Z,429.6154
2023-05-14T10:15:53.172Z,433.0000
2023-05-14T10:16:55.466Z,434.1667
2023-05-14T10:17:57.764Z,435.0000
2023-05-14T10:19:00.147Z,435.4167
2023-05-14T10:20:02.422Z,434.9167
2023-05-14T10:21:04.781Z,435.3333
2023-05-14T10:22:07.728Z,434.5833
2023-05-14T10:23:09.396Z,432.4167
2023-05-14T10:24:11.724Z,431.9231
2023-05-14T10:25:14.068Z,431.6923
2023-05-14T10:26:16.513Z,432.3077
2023-05-14T10:27:18.709Z,433.3333
2023-05-14T10:28:22.265Z,432.6923
2023-05-14T10:29:23.409Z,432.4167
2023-05-14T10:30:25.955Z,434.6154
2023-05-14T10:31:28.127Z,435.2500
2023-05-14T10:32:30.413Z,435.3077
2023-05-14T10:33:32.748Z,433.2308
2023-05-14T10:34:35.273Z,432.9231
2023-05-14T10:35:37.435Z,432.9167
2023-05-14T10:36:39.788Z,432.1538
2023-05-14T10:37:42.248Z,431.0769
2023-05-14T10:38:44.448Z,429.5000
2023-05-14T10:39:46.841Z,430.3077
2023-05-14T10:40:51.602Z,434.6667
2023-05-14T10:41:51.482Z,430.2500
2023-05-14T10:42:53.884Z,429.6923
2023-05-14T10:43:56.134Z,428.5833
2023-05-14T10:44:58.722Z,429.1538
2023-05-14T10:46:01.021Z,431.7500
2023-05-14T10:47:03.678Z,435.3333
2023-05-14T10:48:10.286Z,433.5833
2023-05-14T10:49:08.022Z,430.1818
2023-05-14T10:50:11.145Z,429.5000
2023-05-14T10:51:12.832Z,431.3333
2023-05-14T10:52:15.158Z,432.2500
2023-05-14T10:53:17.688Z,433.6667
2023-05-14T10:54:19.676Z,432.9167
2023-05-14T10:55:21.999Z,433.3333
2023-05-14T10:56:24.514Z,434.4167
2023-05-14T10:57:26.739Z,436.6667
2023-05-14T10:58:29.405Z,437.3333
2023-05-14T10:59:31.166Z,436.5000
2023-05-14T11:00:33.517Z,436.2308
2023-05-14T11:01:36.006Z,434.9231
2023-05-14T11:02:38.315Z,435.0000
2023-05-14T11:03:40.848Z,436.9167
2023-05-14T11:04:42.889Z,431.8333
2023-05-14T11:05:45.259Z,429.0833
2023-05-14T11:06:47.646Z,430.3333
2023-05-14T11:07:49.860Z,428.6667
2023-05-14T11:08:52.226Z,432.2308
2023-05-14T11:09:54.549Z,434.1818
2023-05-14T11:10:56.877Z,434.4615
2023-05-14T11:11:59.325Z,437.2308
2023-05-14T11:13:01.558Z,436.2727
2023-05-14T11:14:03.899Z,435.9231
2023-05-14T11:15:06.418Z,438.2308
2023-05-14T11:16:21.894Z,437.2500
2023-05-14T11:17:11.303Z,436.9091
2023-05-14T11:18:13.316Z,439.3333
2023-05-14T11:19:15.861Z,440.4167
2023-05-14T11:20:18.031Z,439.4167
2023-05-14T11:21:20.395Z,440.6667
2023-05-14T11:22:22.823Z,440.4167
2023-05-14T11:23:24.917Z,439.1667
2023-05-14T11:24:27.268Z,438.9231
2023-05-14T11:25:29.605Z,436.3846
2023-05-14T11:26:32.063Z,434.0769
2023-05-14T11:27:34.315Z,430.7500
2023-05-14T11:28:36.720Z,429.7692
2023-05-14T11:29:38.962Z,431.9167
2023-05-14T11:30:41.299Z,431.3077
2023-05-14T11:31:43.662Z,434.2308
2023-05-14T11:32:46.259Z,434.1667
2023-05-14T11:33:48.328Z,435.3333
2023-05-14T11:34:50.658Z,436.3077
2023-05-14T11:35:53.091Z,436.9231
2023-05-14T11:36:55.343Z,437.8333
2023-05-14T11:37:57.669Z,438.9231
2023-05-14T11:39:00.050Z,442.9231
2023-05-14T11:40:02.417Z,445.6667
2023-05-14T11:41:04.685Z,446.1538
2023-05-14T11:42:07.022Z,445.9231
2023-05-14T11:43:09.371Z,446.0000
2023-05-14T11:44:11.764Z,444.6923
2023-05-14T11:45:14.074Z,443.8333
2023-05-14T11:46:16.421Z,443.0769
2023-05-14T11:47:18.754Z,441.8462
2023-05-14T11:48:21.415Z,442.0769
2023-05-14T11:49:23.481Z,444.2500
2023-05-14T11:50:25.911Z,454.0000
2023-05-14T11:51:28.168Z,456.3333
2023-05-14T11:52:30.464Z,461.0000
2023-05-14T11:53:32.822Z,468.8333
2023-05-14T11:54:35.159Z,467.2308
2023-05-14T11:55:37.601Z,466.2308
2023-05-14T11:56:39.838Z,464.9167
2023-05-14T11:57:42.297Z,465.6923
2023-05-14T11:58:44.480Z,466.0000
2023-05-14T11:59:46.827Z,468.8462
2023-05-14T12:00:49.198Z,470.8462
2023-05-14T12:01:51.504Z,475.0000
2023-05-14T12:02:53.941Z,475.1538
2023-05-14T12:03:56.241Z,470.0000
2023-05-14T12:04:58.533Z,465.1667
2023-05-14T12:06:00.915Z,461.8462
2023-05-14T12:07:03.229Z,456.3846
2023-05-14T12:08:05.624Z,449.6364
2023-05-14T12:09:07.916Z,448.4615
2023-05-14T12:10:10.239Z,447.4615
2023-05-14T12:11:12.601Z,446.0000
2023-05-14T12:12:14.969Z,448.6154
2023-05-14T12:13:17.349Z,448.1538